Meridian — EI6085 — position and weather

sailwx.info

Track history (hours):
 
Tides and Currents Weather Stations Pressure Air Temp Water Temp Dewpoint Dewpoint Depression Visibility Wind Speed Wind Dir Waves Ship Positions

Meridian

Last reported at 2018-Apr-26 09:21 UTC. Time now 2018-Apr-27 05:01 UTC.
Position N 54°38' W 008°27'.

Length 12 m.

Type: Fishing. MMSI: 250107450.

Date/timePositionNaut miles runAvg speedWind from/ knotsBaromVisibWave heightAir tempDewpointWater temp
2018-Apr-26 09:21N 54°38' W 008°27'0 0.0
2018-Apr-25 10:13N 54°38' W 008°27'0 0.0
2018-Apr-25 09:40N 54°38' W 008°27'0 0.0
2018-Apr-25 09:28N 54°38' W 008°27'0 0.0
2018-Apr-24 10:03N 54°38' W 008°27'0 0.0
2018-Apr-24 09:59N 54°38' W 008°27'2 3.1
2018-Apr-24 09:29N 54°37' W 008°27'2 2.9
2018-Apr-24 08:55N 54°38' W 008°27'0 0.1
2018-Apr-24 08:29N 54°38' W 008°27'0 0.0
2018-Apr-23 11:06N 54°38' W 008°27'0 0.0
2018-Apr-23 10:48N 54°38' W 008°27'0 0.0
2018-Apr-23 08:38N 54°38' W 008°27'0 0.0
2018-Apr-23 08:29N 54°38' W 008°27'0 0.0
2018-Apr-22 15:48N 54°38' W 008°27'0 0.3
2018-Apr-22 15:30N 54°38' W 008°26'2 3.7
2018-Apr-22 15:00N 54°36' W 008°27'3 0.5
2018-Apr-22 09:34N 54°34' W 008°29'0 0.6
2018-Apr-22 09:28N 54°34' W 008°29'2 2.1
2018-Apr-22 08:42N 54°35' W 008°28'1 1.8
2018-Apr-22 08:21N 54°36' W 008°27'1 3.2
2018-Apr-22 07:58N 54°37' W 008°27'1 2.7
2018-Apr-22 07:29N 54°38' W 008°27'0 0.0
2018-Apr-21 15:49N 54°38' W 008°27'0 0.2
2018-Apr-21 15:28N 54°38' W 008°27'2 4.7
2018-Apr-21 14:59N 54°36' W 008°28'2 0.6
2018-Apr-21 11:21N 54°34' W 008°30'0 0.7
2018-Apr-21 10:44N 54°34' W 008°30'0 0.5
2018-Apr-21 10:22N 54°34' W 008°30'4 1.9
2018-Apr-21 08:14N 54°38' W 008°26'0 0.6
2018-Apr-21 07:23N 54°38' W 008°27'0 0.0
2018-Apr-20 13:44N 54°38' W 008°27'0 1.0
2018-Apr-20 13:21N 54°38' W 008°26'3 7.3
2018-Apr-20 12:58N 54°35' W 008°28'2 2.0
2018-Apr-20 11:56N 54°35' W 008°31'1 0.6
2018-Apr-20 10:04N 54°35' W 008°33'1 3.3
2018-Apr-20 09:45N 54°35' W 008°32'1 3.9
2018-Apr-20 09:28N 54°36' W 008°30'3 4.9
2018-Apr-20 08:56N 54°37' W 008°26'1 1.7
2018-Apr-20 08:27N 54°38' W 008°27'0 0.0
2018-Apr-19 18:30N 54°38' W 008°27'0 0.0
2018-Apr-19 17:51N 54°38' W 008°27'0 0.0
2018-Apr-19 16:30N 54°38' W 008°27'0 0.0
2018-Apr-19 15:36N 54°38' W 008°27'0 0.0
2018-Apr-19 15:24N 54°38' W 008°27'0 0.0
2018-Apr-19 15:00N 54°38' W 008°27'0 0.0
2018-Apr-19 14:27N 54°38' W 008°27'0 0.0
2018-Apr-19 14:00N 54°38' W 008°27'0 0.0
2018-Apr-19 13:27N 54°38' W 008°27'0 0.0
2018-Apr-19 12:58N 54°38' W 008°27'0 0.0
2018-Apr-19 12:31N 54°38' W 008°27'0 0.0
2018-Apr-19 11:48N 54°38' W 008°27'0 0.0
2018-Apr-19 11:30N 54°38' W 008°27'0 0.0
2018-Apr-19 10:58N 54°38' W 008°27'0 0.0
2018-Apr-19 10:30N 54°38' W 008°27'0 0.0
2018-Apr-18 09:57N 54°38' W 008°27'  
Track history (hours):
 
Tides and Currents Weather Stations Pressure Air Temp Water Temp Dewpoint Dewpoint Depression Visibility Wind Speed Wind Dir Waves Ship Positions

Meridian

Last reported at 2018-Apr-26 09:21 UTC. Time now 2018-Apr-27 05:01 UTC.
Position N 54°38' W 008°27'.

Length 12 m.

Type: Fishing. MMSI: 250107450.

Date/timePositionNaut miles runAvg speedWind from/ knotsBaromVisibWave heightAir tempDewpointWater temp
2018-Apr-26 09:21N 54°38' W 008°27'0 0.0
2018-Apr-25 10:13N 54°38' W 008°27'0 0.0
2018-Apr-25 09:40N 54°38' W 008°27'0 0.0
2018-Apr-25 09:28N 54°38' W 008°27'0 0.0
2018-Apr-24 10:03N 54°38' W 008°27'0 0.0
2018-Apr-24 09:59N 54°38' W 008°27'2 3.1
2018-Apr-24 09:29N 54°37' W 008°27'2 2.9
2018-Apr-24 08:55N 54°38' W 008°27'0 0.1
2018-Apr-24 08:29N 54°38' W 008°27'0 0.0
2018-Apr-23 11:06N 54°38' W 008°27'0 0.0
2018-Apr-23 10:48N 54°38' W 008°27'0 0.0
2018-Apr-23 08:38N 54°38' W 008°27'0 0.0
2018-Apr-23 08:29N 54°38' W 008°27'0 0.0
2018-Apr-22 15:48N 54°38' W 008°27'0 0.3
2018-Apr-22 15:30N 54°38' W 008°26'2 3.7
2018-Apr-22 15:00N 54°36' W 008°27'3 0.5
2018-Apr-22 09:34N 54°34' W 008°29'0 0.6
2018-Apr-22 09:28N 54°34' W 008°29'2 2.1
2018-Apr-22 08:42N 54°35' W 008°28'1 1.8
2018-Apr-22 08:21N 54°36' W 008°27'1 3.2
2018-Apr-22 07:58N 54°37' W 008°27'1 2.7
2018-Apr-22 07:29N 54°38' W 008°27'0 0.0
2018-Apr-21 15:49N 54°38' W 008°27'0 0.2
2018-Apr-21 15:28N 54°38' W 008°27'2 4.7
2018-Apr-21 14:59N 54°36' W 008°28'2 0.6
2018-Apr-21 11:21N 54°34' W 008°30'0 0.7
2018-Apr-21 10:44N 54°34' W 008°30'0 0.5
2018-Apr-21 10:22N 54°34' W 008°30'4 1.9
2018-Apr-21 08:14N 54°38' W 008°26'0 0.6
2018-Apr-21 07:23N 54°38' W 008°27'0 0.0
2018-Apr-20 13:44N 54°38' W 008°27'0 1.0
2018-Apr-20 13:21N 54°38' W 008°26'3 7.3
2018-Apr-20 12:58N 54°35' W 008°28'2 2.0
2018-Apr-20 11:56N 54°35' W 008°31'1 0.6
2018-Apr-20 10:04N 54°35' W 008°33'1 3.3
2018-Apr-20 09:45N 54°35' W 008°32'1 3.9
2018-Apr-20 09:28N 54°36' W 008°30'3 4.9
2018-Apr-20 08:56N 54°37' W 008°26'1 1.7
2018-Apr-20 08:27N 54°38' W 008°27'0 0.0
2018-Apr-19 18:30N 54°38' W 008°27'0 0.0
2018-Apr-19 17:51N 54°38' W 008°27'0 0.0
2018-Apr-19 16:30N 54°38' W 008°27'0 0.0
2018-Apr-19 15:36N 54°38' W 008°27'0 0.0
2018-Apr-19 15:24N 54°38' W 008°27'0 0.0
2018-Apr-19 15:00N 54°38' W 008°27'0 0.0
2018-Apr-19 14:27N 54°38' W 008°27'0 0.0
2018-Apr-19 14:00N 54°38' W 008°27'0 0.0
2018-Apr-19 13:27N 54°38' W 008°27'0 0.0
2018-Apr-19 12:58N 54°38' W 008°27'0 0.0
2018-Apr-19 12:31N 54°38' W 008°27'0 0.0
2018-Apr-19 11:48N 54°38' W 008°27'0 0.0
2018-Apr-19 11:30N 54°38' W 008°27'0 0.0
2018-Apr-19 10:58N 54°38' W 008°27'0 0.0
2018-Apr-19 10:30N 54°38' W 008°27'0 0.0
2018-Apr-18 09:57N 54°38' W 008°27'  

Dump ship's entire track history